KSDY

Sidney-Richland Regional Airport

Sidney, Montana, USA
METAR KSDY 230956Z AUTO 35005KT 10SM M03/M07 A3028 RMK AO2 SLP274 T10331067 FZRANO $
Observed Flight Rules
Oct-23 @ 09:56 UTC (12 minutes ago)
Wind Visibility
350° at 5 knots 10 miles
Temperatures Readings
Current -3°C / 27°F
Dewpoint -7°C / 19°F
Humidity 74%
Altimeter 30.28" Hg
Pressure 1027.4 hPa
Elevation 605
METAR KSDY 230956Z AUTO 35005KT 10SM M03/M07 A3028 RMK AO2 SLP274 T10331067 FZRANO $
Observed Flight Rules
Oct-23 @ 09:56 UTC
(12 minutes ago)
Wind Visibility
350° at 5 knots 10 miles
Temperature Dewpoint
-3°C / 27°F -7°C / 19°F
Humidity Altimeter Pressure
74% 30.28" Hg 1027.4 hPa